Time;durP1;ratioP1;P1;durP2;ratioP2;P2;SDS_P1;SDS_P2;PMS_P1;PMS_P2;Temp;Humidity;BMP_temperature;BMP_pressure;BME280_temperature;BME280_humidity;BME280_pressure;Samples;Min_cycle;Max_cycle;Signal;HPM_P1;HPM_P2
2024/01/08 00:03:40;;;;;;;29.87;13.87;;;;;;;;;;10122925;29;20037;-79
2024/01/08 00:08:41;;;;;;;29.07;14.20;;;;;;;;;;10124812;29;20846;-79
2024/01/08 00:13:42;;;;;;;25.50;11.43;;;;;;;;;;10113700;29;20853;-81
2024/01/08 00:18:49;;;;;;;28.93;13.43;;;;;;;;;;10121816;29;20046;-79
2024/01/08 00:23:50;;;;;;;33.53;14.70;;;;;;;;;;10124963;29;20092;-80
2024/01/08 00:28:51;;;;;;;31.50;14.17;;;;;;;;;;10124710;29;20028;-79
2024/01/08 00:33:53;;;;;;;29.37;13.97;;;;;;;;;;10123734;29;20559;-79
2024/01/08 00:38:54;;;;;;;34.80;15.87;;;;;;;;;;10124137;29;20037;-79
2024/01/08 00:43:55;;;;;;;36.73;14.50;;;;;;;;;;10112541;29;20029;-80
2024/01/08 00:48:57;;;;;;;33.57;14.03;;;;;;;;;;10117497;29;20578;-78
2024/01/08 00:53:58;;;;;;;31.17;12.87;;;;;;;;;;10115858;29;20123;-79
2024/01/08 00:58:59;;;;;;;34.53;15.27;;;;;;;;;;10122078;29;20096;-82
2024/01/08 01:04:00;;;;;;;31.23;14.63;;;;;;;;;;10119000;29;20041;-81
2024/01/08 01:09:01;;;;;;;29.50;11.93;;;;;;;;;;10123757;29;20037;-79
2024/01/08 01:14:03;;;;;;;31.00;14.43;;;;;;;;;;10116856;29;20039;-79
2024/01/08 01:19:04;;;;;;;27.50;12.10;;;;;;;;;;10129708;29;20044;-79
2024/01/08 01:24:05;;;;;;;27.10;12.67;;;;;;;;;;10118895;29;20032;-79
2024/01/08 01:29:06;;;;;;;30.20;12.03;;;;;;;;;;10123957;29;20396;-81
2024/01/08 01:34:10;;;;;;;28.07;11.50;;;;;;;;;;10123098;29;20041;-79
2024/01/08 01:39:11;;;;;;;27.67;12.57;;;;;;;;;;10126013;29;20047;-79
2024/01/08 01:44:12;;;;;;;31.23;14.03;;;;;;;;;;10126906;29;20032;-79
2024/01/08 01:49:15;;;;;;;33.13;12.03;;;;;;;;;;10120385;29;20064;-79
2024/01/08 01:54:17;;;;;;;30.57;13.50;;;;;;;;;;10116087;29;20614;-79
2024/01/08 01:59:25;;;;;;;39.37;16.03;;;;;;;;;;10128577;29;20057;-78
2024/01/08 02:04:27;;;;;;;32.13;13.33;;;;;;;;;;10127439;29;20108;-78
2024/01/08 02:09:34;;;;;;;30.47;12.97;;;;;;;;;;10116993;29;20052;-79
2024/01/08 02:14:35;;;;;;;27.83;12.50;;;;;;;;;;10112616;29;20036;-78
2024/01/08 02:19:37;;;;;;;28.90;12.13;;;;;;;;;;10101582;29;20474;-79
2024/01/08 02:24:38;;;;;;;31.43;13.37;;;;;;;;;;10126493;29;20040;-78
2024/01/08 02:29:39;;;;;;;30.33;14.03;;;;;;;;;;10115901;29;20476;-78
2024/01/08 02:34:40;;;;;;;28.20;11.30;;;;;;;;;;10125952;29;20032;-78
2024/01/08 02:39:41;;;;;;;29.27;13.10;;;;;;;;;;10125341;29;20068;-82
2024/01/08 02:44:42;;;;;;;30.43;12.57;;;;;;;;;;10125136;29;20773;-82
2024/01/08 02:49:43;;;;;;;34.33;15.37;;;;;;;;;;10094952;29;20553;-79
2024/01/08 02:54:44;;;;;;;35.27;13.27;;;;;;;;;;10087349;29;20092;-79
2024/01/08 02:59:45;;;;;;;29.73;13.47;;;;;;;;;;10086972;29;20045;-79
2024/01/08 03:04:46;;;;;;;36.00;14.20;;;;;;;;;;10087035;29;20044;-78
2024/01/08 03:09:48;;;;;;;31.43;13.70;;;;;;;;;;10087714;29;20096;-82
2024/01/08 03:14:49;;;;;;;39.43;15.03;;;;;;;;;;10087878;29;20092;-79
2024/01/08 03:19:50;;;;;;;32.83;14.60;;;;;;;;;;10086386;29;20382;-82
2024/01/08 03:24:51;;;;;;;37.03;13.60;;;;;;;;;;10087199;29;20041;-79
2024/01/08 03:29:52;;;;;;;32.37;15.17;;;;;;;;;;10087425;29;20490;-79
2024/01/08 03:34:53;;;;;;;34.50;14.00;;;;;;;;;;10086796;29;20072;-79
2024/01/08 03:39:56;;;;;;;33.70;13.17;;;;;;;;;;10086114;29;20037;-79
2024/01/08 03:44:57;;;;;;;39.37;15.13;;;;;;;;;;10086505;29;20044;-79
2024/01/08 03:49:58;;;;;;;75.13;22.87;;;;;;;;;;10110618;29;20067;-80
2024/01/08 03:54:59;;;;;;;57.17;19.67;;;;;;;;;;10125517;29;20029;-79
2024/01/08 04:00:00;;;;;;;42.23;16.73;;;;;;;;;;10114607;29;20096;-81
2024/01/08 04:05:02;;;;;;;40.20;16.40;;;;;;;;;;10124253;29;20131;-80
2024/01/08 04:10:04;;;;;;;38.80;15.53;;;;;;;;;;10105421;29;20070;-80
2024/01/08 04:15:05;;;;;;;40.37;16.07;;;;;;;;;;10122448;29;20124;-79
2024/01/08 04:20:08;;;;;;;37.27;15.73;;;;;;;;;;10115532;29;20504;-84
2024/01/08 04:25:09;;;;;;;31.53;13.50;;;;;;;;;;10116235;29;20025;-82
2024/01/08 04:30:10;;;;;;;37.83;15.30;;;;;;;;;;10124771;29;20040;-83
2024/01/08 04:35:11;;;;;;;32.90;15.23;;;;;;;;;;10116527;29;20039;-83
2024/01/08 04:40:13;;;;;;;33.97;14.83;;;;;;;;;;10115064;29;20037;-80
2024/01/08 04:45:14;;;;;;;39.83;15.43;;;;;;;;;;10113030;29;20041;-81
2024/01/08 04:50:15;;;;;;;34.53;14.73;;;;;;;;;;10124601;29;20095;-81
2024/01/08 04:55:16;;;;;;;34.77;13.57;;;;;;;;;;10123002;29;20310;-82
2024/01/08 05:00:17;;;;;;;34.37;14.53;;;;;;;;;;10124263;29;20861;-83
2024/01/08 05:05:18;;;;;;;38.83;15.10;;;;;;;;;;10130067;29;20039;-80
2024/01/08 05:10:19;;;;;;;39.50;15.83;;;;;;;;;;10130670;29;20499;-81
2024/01/08 05:15:20;;;;;;;34.20;14.33;;;;;;;;;;10127764;29;20049;-88
2024/01/08 05:20:21;;;;;;;30.53;12.43;;;;;;;;;;10126573;29;20104;-84
2024/01/08 05:25:22;;;;;;;35.27;14.50;;;;;;;;;;10127559;29;20124;-82
2024/01/08 05:30:23;;;;;;;31.03;13.53;;;;;;;;;;10129818;29;20092;-83
2024/01/08 05:35:24;;;;;;;34.43;13.47;;;;;;;;;;10129971;29;20148;-81
2024/01/08 05:40:25;;;;;;;34.90;15.53;;;;;;;;;;10129373;29;20552;-80
2024/01/08 05:45:32;;;;;;;31.80;13.83;;;;;;;;;;10129525;29;20046;-81
2024/01/08 05:50:33;;;;;;;39.37;14.50;;;;;;;;;;10130199;29;20135;-80
2024/01/08 05:55:34;;;;;;;38.50;15.03;;;;;;;;;;10129095;29;20040;-81
2024/01/08 06:00:35;;;;;;;38.93;13.97;;;;;;;;;;10129150;29;20036;-81
2024/01/08 06:05:36;;;;;;;33.73;14.10;;;;;;;;;;10130134;29;20036;-81
2024/01/08 06:10:38;;;;;;;38.37;15.93;;;;;;;;;;10128922;29;20046;-83
2024/01/08 06:15:39;;;;;;;38.20;16.53;;;;;;;;;;10129615;29;20033;-83
2024/01/08 06:20:41;;;;;;;38.87;17.63;;;;;;;;;;10129264;29;20033;-81
2024/01/08 06:25:42;;;;;;;35.27;13.67;;;;;;;;;;10128082;29;20056;-79
2024/01/08 06:30:43;;;;;;;36.90;13.80;;;;;;;;;;10128623;29;20040;-80
2024/01/08 06:35:45;;;;;;;34.37;15.17;;;;;;;;;;10128343;29;20037;-83
2024/01/08 06:40:46;;;;;;;41.67;15.50;;;;;;;;;;10127121;29;20037;-81
2024/01/08 06:45:47;;;;;;;34.13;14.67;;;;;;;;;;10128981;29;20040;-80
2024/01/08 06:50:48;;;;;;;35.53;14.07;;;;;;;;;;10127755;29;20053;-81
2024/01/08 06:55:50;;;;;;;35.47;15.03;;;;;;;;;;10115763;29;20127;-81
2024/01/08 07:00:51;;;;;;;29.10;13.37;;;;;;;;;;10126655;29;20025;-82
2024/01/08 07:05:52;;;;;;;33.77;13.90;;;;;;;;;;10127185;29;20417;-81
2024/01/08 07:10:53;;;;;;;36.13;14.97;;;;;;;;;;10127421;29;20035;-80
2024/01/08 07:15:54;;;;;;;37.40;15.40;;;;;;;;;;10126021;29;20075;-84
2024/01/08 07:20:55;;;;;;;35.17;14.93;;;;;;;;;;10127406;29;20667;-80
2024/01/08 07:25:56;;;;;;;33.37;13.97;;;;;;;;;;10125770;29;20052;-80
2024/01/08 07:30:57;;;;;;;35.17;14.47;;;;;;;;;;10126881;29;20024;-80
2024/01/08 07:35:58;;;;;;;28.50;13.23;;;;;;;;;;10123964;29;20084;-81
2024/01/08 07:41:00;;;;;;;39.10;15.40;;;;;;;;;;10124846;29;20036;-81
2024/01/08 07:46:01;;;;;;;39.80;15.17;;;;;;;;;;10125537;29;20813;-81
2024/01/08 07:51:02;;;;;;;37.97;15.03;;;;;;;;;;10123367;29;20067;-81
2024/01/08 07:56:03;;;;;;;28.63;12.83;;;;;;;;;;10126655;29;20123;-81
2024/01/08 08:01:05;;;;;;;37.80;15.63;;;;;;;;;;10126595;29;20036;-81
2024/01/08 08:06:06;;;;;;;37.60;16.37;;;;;;;;;;10126417;29;20039;-83
2024/01/08 08:11:14;;;;;;;45.93;16.63;;;;;;;;;;10125970;29;20509;-81
2024/01/08 08:16:15;;;;;;;42.30;17.00;;;;;;;;;;10124642;29;20044;-82
2024/01/08 08:21:17;;;;;;;37.53;15.97;;;;;;;;;;10124057;29;20175;-81
2024/01/08 08:26:18;;;;;;;38.67;15.50;;;;;;;;;;10130376;29;20025;-81
2024/01/08 08:31:19;;;;;;;26.40;12.90;;;;;;;;;;10131232;29;20568;-81
2024/01/08 08:36:20;;;;;;;30.47;13.50;;;;;;;;;;10130276;29;20056;-80
2024/01/08 08:41:21;;;;;;;34.07;13.30;;;;;;;;;;10132060;29;20036;-81
2024/01/08 08:46:22;;;;;;;32.47;14.03;;;;;;;;;;10129555;29;20033;-80
2024/01/08 08:51:23;;;;;;;40.03;15.93;;;;;;;;;;10129531;29;20060;-83
2024/01/08 08:56:24;;;;;;;34.43;15.70;;;;;;;;;;10130020;29;20569;-82
2024/01/08 09:01:25;;;;;;;36.37;14.83;;;;;;;;;;10131346;29;20124;-81
2024/01/08 09:06:27;;;;;;;34.57;15.57;;;;;;;;;;10131178;29;20032;-82
2024/01/08 09:11:29;;;;;;;39.90;16.03;;;;;;;;;;10131826;29;20123;-82
2024/01/08 09:16:30;;;;;;;36.33;13.97;;;;;;;;;;10129701;29;20047;-81
2024/01/08 09:21:31;;;;;;;32.57;13.03;;;;;;;;;;10130882;29;20378;-80
2024/01/08 09:26:32;;;;;;;36.40;13.17;;;;;;;;;;10129105;29;20037;-81
2024/01/08 09:31:33;;;;;;;36.37;13.53;;;;;;;;;;10130811;29;20028;-82
2024/01/08 09:36:34;;;;;;;31.53;14.10;;;;;;;;;;10129723;29;20040;-83
2024/01/08 09:41:35;;;;;;;33.60;13.67;;;;;;;;;;10117287;29;20132;-80
2024/01/08 09:46:43;;;;;;;30.93;13.60;;;;;;;;;;10130825;29;20045;-82
2024/01/08 09:51:44;;;;;;;36.63;15.27;;;;;;;;;;10129299;29;20060;-81
2024/01/08 09:56:50;;;;;;;33.97;13.90;;;;;;;;;;10130613;29;20037;-81
2024/01/08 10:01:51;;;;;;;31.33;14.45;;;;;;;;;;10129056;29;20028;-80
2024/01/08 10:07:08;;;;;;;32.73;12.87;;;;;;;;;;10129165;29;20039;-82
2024/01/08 10:12:10;;;;;;;32.53;13.53;;;;;;;;;;10130104;29;20044;-82
2024/01/08 10:17:14;;;;;;;32.20;14.10;;;;;;;;;;10127515;29;20036;-83
2024/01/08 10:22:16;;;;;;;27.17;12.20;;;;;;;;;;10127345;29;20036;-80
2024/01/08 10:27:17;;;;;;;31.57;13.97;;;;;;;;;;10116555;29;20033;-80
2024/01/08 10:32:19;;;;;;;32.40;14.07;;;;;;;;;;10129433;29;20362;-81
2024/01/08 10:37:20;;;;;;;36.20;13.83;;;;;;;;;;10129286;29;20024;-80
2024/01/08 10:42:21;;;;;;;27.47;13.13;;;;;;;;;;10129563;29;20376;-81
2024/01/08 10:47:26;;;;;;;30.97;12.33;;;;;;;;;;10124599;29;20569;-82
2024/01/08 10:52:32;;;;;;;31.63;13.50;;;;;;;;;;10128139;29;20416;-83
2024/01/08 10:57:36;;;;;;;40.43;14.57;;;;;;;;;;10127869;29;20136;-83
2024/01/08 11:02:38;;;;;;;33.40;13.47;;;;;;;;;;10127971;29;20060;-83
2024/01/08 11:07:41;;;;;;;34.23;15.13;;;;;;;;;;10126001;29;20037;-82
2024/01/08 11:12:42;;;;;;;32.43;14.73;;;;;;;;;;10114413;29;20121;-82
2024/01/08 11:17:53;;;;;;;32.17;15.10;;;;;;;;;;10127341;29;20045;-83
2024/01/08 11:22:54;;;;;;;32.23;14.43;;;;;;;;;;10126071;29;20037;-80
2024/01/08 11:28:06;;;;;;;32.50;14.23;;;;;;;;;;10126365;29;20053;-83
2024/01/08 11:33:25;;;;;;;32.40;14.43;;;;;;;;;;10125479;29;20038;-82
2024/01/08 11:38:27;;;;;;;31.77;13.83;;;;;;;;;;10126242;29;20076;-81
2024/01/08 11:43:29;;;;;;;36.27;14.53;;;;;;;;;;10125520;29;20037;-81
2024/01/08 11:48:37;;;;;;;29.80;12.97;;;;;;;;;;10125601;29;20099;-82
2024/01/08 11:53:47;;;;;;;29.67;12.07;;;;;;;;;;10124939;29;20067;-81
2024/01/08 11:58:48;;;;;;;29.90;13.23;;;;;;;;;;10125568;29;20040;-81
2024/01/08 12:03:49;;;;;;;30.17;13.80;;;;;;;;;;10125744;29;20487;-80
2024/01/08 12:08:53;;;;;;;31.17;13.43;;;;;;;;;;10126106;29;20039;-82
2024/01/08 12:13:55;;;;;;;31.90;13.00;;;;;;;;;;10124964;29;20033;-85
2024/01/08 12:18:56;;;;;;;33.77;13.97;;;;;;;;;;10123332;29;20042;-83
2024/01/08 12:23:57;;;;;;;31.03;12.47;;;;;;;;;;10106482;29;20040;-83
2024/01/08 12:28:58;;;;;;;35.50;13.73;;;;;;;;;;10121560;29;20404;-82
2024/01/08 12:33:59;;;;;;;33.93;13.93;;;;;;;;;;10112267;29;20025;-81
2024/01/08 12:39:00;;;;;;;32.17;13.40;;;;;;;;;;10105085;29;20032;-81
2024/01/08 12:44:08;;;;;;;29.93;12.40;;;;;;;;;;10120636;29;20115;-82
2024/01/08 12:49:09;;;;;;;33.33;12.53;;;;;;;;;;10110112;23;20814;-84
2024/01/08 12:54:11;;;;;;;28.30;11.97;;;;;;;;;;10075235;29;20029;-83
2024/01/08 12:59:13;;;;;;;29.33;12.93;;;;;;;;;;10077237;29;20079;-81
2024/01/08 13:04:15;;;;;;;31.07;13.63;;;;;;;;;;10119712;29;20044;-83
2024/01/08 13:09:16;;;;;;;30.00;13.60;;;;;;;;;;10112457;29;20048;-80
2024/01/08 13:14:18;;;;;;;27.57;12.77;;;;;;;;;;10130589;29;20036;-79
2024/01/08 13:19:19;;;;;;;29.53;11.70;;;;;;;;;;10125708;29;20615;-82
2024/01/08 13:24:22;;;;;;;30.23;13.27;;;;;;;;;;10115340;29;20520;-79
2024/01/08 13:29:23;;;;;;;28.80;13.80;;;;;;;;;;10116063;29;20037;-82
2024/01/08 13:34:24;;;;;;;30.30;14.27;;;;;;;;;;10100052;29;20037;-82
2024/01/08 13:39:26;;;;;;;34.33;13.63;;;;;;;;;;10097789;29;20044;-80
2024/01/08 13:44:27;;;;;;;30.50;13.43;;;;;;;;;;10095616;29;20093;-80
2024/01/08 13:49:28;;;;;;;30.63;13.77;;;;;;;;;;10099233;29;20068;-80
2024/01/08 13:54:29;;;;;;;35.73;15.93;;;;;;;;;;10092530;29;20107;-81
2024/01/08 13:59:36;;;;;;;34.23;15.67;;;;;;;;;;10100231;29;20045;-82
2024/01/08 14:04:38;;;;;;;32.73;14.80;;;;;;;;;;10095577;29;20072;-80
2024/01/08 14:09:45;;;;;;;32.33;14.43;;;;;;;;;;10077795;29;20156;-82
2024/01/08 14:14:46;;;;;;;33.00;15.60;;;;;;;;;;10081994;29;20061;-81
2024/01/08 14:19:47;;;;;;;38.27;15.83;;;;;;;;;;10090088;29;20045;-82
2024/01/08 14:24:49;;;;;;;45.10;18.70;;;;;;;;;;10089817;29;20043;-83
2024/01/08 14:29:59;;;;;;;33.60;15.00;;;;;;;;;;10089924;29;20052;-80
2024/01/08 14:35:07;;;;;;;39.43;16.03;;;;;;;;;;10089755;29;20533;-81
2024/01/08 14:40:10;;;;;;;41.60;16.80;;;;;;;;;;10097544;29;20482;-83
2024/01/08 14:45:13;;;;;;;35.00;16.13;;;;;;;;;;10098137;29;20036;-79
2024/01/08 14:50:14;;;;;;;41.30;17.40;;;;;;;;;;10105281;29;20065;-80
2024/01/08 14:55:15;;;;;;;40.50;18.60;;;;;;;;;;10106742;29;20068;-81
2024/01/08 15:00:17;;;;;;;46.53;20.17;;;;;;;;;;10090918;29;20051;-81
2024/01/08 15:05:18;;;;;;;41.50;16.00;;;;;;;;;;10089404;29;20443;-81
2024/01/08 15:10:19;;;;;;;44.77;18.60;;;;;;;;;;10100060;29;20036;-84
2024/01/08 15:15:20;;;;;;;39.60;18.47;;;;;;;;;;10073993;29;20123;-83
2024/01/08 15:20:21;;;;;;;49.73;19.50;;;;;;;;;;10084324;29;20073;-85
2024/01/08 15:25:22;;;;;;;59.50;22.73;;;;;;;;;;10081836;29;20486;-84
2024/01/08 15:30:23;;;;;;;55.73;22.33;;;;;;;;;;10090785;29;20037;-83
2024/01/08 15:35:25;;;;;;;59.50;22.03;;;;;;;;;;10091134;29;20037;-85
2024/01/08 15:40:26;;;;;;;54.87;24.17;;;;;;;;;;10109854;29;20398;-84
2024/01/08 15:45:28;;;;;;;56.23;23.87;;;;;;;;;;10081696;29;20036;-84
2024/01/08 15:50:29;;;;;;;56.17;24.70;;;;;;;;;;10090620;29;20116;-82
2024/01/08 15:55:31;;;;;;;71.47;27.40;;;;;;;;;;10088629;29;20037;-81
2024/01/08 16:00:32;;;;;;;67.60;26.00;;;;;;;;;;10096451;29;20037;-82
2024/01/08 16:05:33;;;;;;;64.73;25.73;;;;;;;;;;10084273;29;20505;-85
2024/01/08 16:10:34;;;;;;;63.07;26.37;;;;;;;;;;10085594;29;20029;-84
2024/01/08 16:15:35;;;;;;;64.60;25.97;;;;;;;;;;10087357;29;20026;-82
2024/01/08 16:20:36;;;;;;;68.00;26.43;;;;;;;;;;10069140;29;20568;-83
2024/01/08 16:25:37;;;;;;;67.20;27.30;;;;;;;;;;10085989;29;20389;-85
2024/01/08 16:30:38;;;;;;;66.20;28.20;;;;;;;;;;10087559;29;20486;-85
2024/01/08 16:35:39;;;;;;;71.33;26.97;;;;;;;;;;10085653;29;20096;-83
2024/01/08 16:40:40;;;;;;;60.13;25.20;;;;;;;;;;10086005;29;20025;-81
2024/01/08 16:45:41;;;;;;;72.40;28.40;;;;;;;;;;10072057;29;20040;-82
2024/01/08 16:50:42;;;;;;;70.67;28.40;;;;;;;;;;10093945;29;20075;-82
2024/01/08 16:55:43;;;;;;;66.77;28.40;;;;;;;;;;10077281;29;20093;-82
2024/01/08 17:00:44;;;;;;;68.63;27.53;;;;;;;;;;10093111;29;20036;-84
2024/01/08 17:05:46;;;;;;;63.77;26.40;;;;;;;;;;10093947;29;20045;-84
2024/01/08 17:10:47;;;;;;;76.90;29.80;;;;;;;;;;10092935;29;20102;-81
2024/01/08 17:15:49;;;;;;;70.40;27.67;;;;;;;;;;10092219;29;20029;-84
2024/01/08 17:20:50;;;;;;;75.47;28.50;;;;;;;;;;10093026;29;20124;-81
2024/01/08 17:25:51;;;;;;;73.93;30.50;;;;;;;;;;10092349;29;20111;-84
2024/01/08 17:30:52;;;;;;;74.07;30.63;;;;;;;;;;10092358;29;20727;-82
2024/01/08 17:35:53;;;;;;;85.83;32.07;;;;;;;;;;10094844;29;20055;-81
2024/01/08 17:40:54;;;;;;;80.83;31.00;;;;;;;;;;10097441;29;20674;-83
2024/01/08 17:45:55;;;;;;;88.90;35.33;;;;;;;;;;10078662;29;20067;-83
2024/01/08 17:50:56;;;;;;;92.80;36.03;;;;;;;;;;10086832;29;20528;-83
2024/01/08 17:55:57;;;;;;;90.77;33.57;;;;;;;;;;10088954;29;20037;-84
2024/01/08 18:00:58;;;;;;;89.63;33.13;;;;;;;;;;10097159;29;20041;-81
2024/01/08 18:06:01;;;;;;;83.33;32.70;;;;;;;;;;10103793;29;20401;-81
2024/01/08 18:11:02;;;;;;;81.40;32.50;;;;;;;;;;10087496;29;20045;-83
2024/01/08 18:16:03;;;;;;;89.37;33.70;;;;;;;;;;10104632;29;20040;-82
2024/01/08 18:21:05;;;;;;;86.53;35.10;;;;;;;;;;10104077;29;20040;-83
2024/01/08 18:26:07;;;;;;;79.77;32.27;;;;;;;;;;10082940;29;20036;-84
2024/01/08 18:31:08;;;;;;;80.13;33.17;;;;;;;;;;10099507;29;20171;-86
2024/01/08 18:36:09;;;;;;;77.57;28.30;;;;;;;;;;10077764;29;20080;-83
2024/01/08 18:41:10;;;;;;;75.70;29.13;;;;;;;;;;10102611;29;20157;-84
2024/01/08 18:46:18;;;;;;;97.23;35.77;;;;;;;;;;10090605;29;20047;-84
2024/01/08 18:51:19;;;;;;;95.70;36.30;;;;;;;;;;10077969;29;20414;-85
2024/01/08 18:56:20;;;;;;;97.00;34.23;;;;;;;;;;10094334;29;20656;-84
2024/01/08 19:01:26;;;;;;;102.83;36.90;;;;;;;;;;10089187;29;20037;-84
2024/01/08 19:06:29;;;;;;;87.50;34.03;;;;;;;;;;10089170;29;20040;-85
2024/01/08 19:11:30;;;;;;;75.03;29.77;;;;;;;;;;10088409;29;20044;-84
2024/01/08 19:16:31;;;;;;;78.37;26.97;;;;;;;;;;10074065;29;20040;-84
2024/01/08 19:21:32;;;;;;;94.43;34.70;;;;;;;;;;10067842;29;20807;-84
2024/01/08 19:26:40;;;;;;;99.23;34.67;;;;;;;;;;10093202;29;20041;-84
2024/01/08 19:31:45;;;;;;;99.27;33.73;;;;;;;;;;10092016;29;20043;-85
2024/01/08 19:36:46;;;;;;;103.47;34.67;;;;;;;;;;10094061;29;20044;-84
2024/01/08 19:41:47;;;;;;;118.77;40.23;;;;;;;;;;10095658;29;20025;-85
2024/01/08 19:46:48;;;;;;;116.57;36.97;;;;;;;;;;10085137;29;20047;-87
2024/01/08 19:51:50;;;;;;;97.73;33.30;;;;;;;;;;10090683;29;20061;-84
2024/01/08 19:56:57;;;;;;;75.63;28.73;;;;;;;;;;10077522;29;20039;-85
2024/01/08 20:01:59;;;;;;;85.60;30.00;;;;;;;;;;10092085;29;20644;-88
2024/01/08 20:07:00;;;;;;;77.03;30.33;;;;;;;;;;10085536;29;20132;-84
2024/01/08 20:12:04;;;;;;;79.47;30.00;;;;;;;;;;10091170;29;20033;-87
2024/01/08 20:17:05;;;;;;;87.30;32.20;;;;;;;;;;10105062;29;20449;-84
2024/01/08 20:22:06;;;;;;;79.53;30.87;;;;;;;;;;10090494;29;20032;-84
2024/01/08 20:27:08;;;;;;;80.43;30.33;;;;;;;;;;10110263;29;20630;-84
2024/01/08 20:32:09;;;;;;;73.20;30.23;;;;;;;;;;10104210;29;20116;-85
2024/01/08 20:37:10;;;;;;;87.17;33.07;;;;;;;;;;10098659;29;20121;-84
2024/01/08 20:42:11;;;;;;;87.77;33.10;;;;;;;;;;10100189;29;20041;-87
2024/01/08 20:47:13;;;;;;;81.23;31.60;;;;;;;;;;10117647;29;20147;-84
2024/01/08 20:52:14;;;;;;;84.67;31.97;;;;;;;;;;10096219;29;20044;-84
2024/01/08 20:57:15;;;;;;;76.37;29.63;;;;;;;;;;10099082;29;20526;-85
2024/01/08 21:02:16;;;;;;;76.00;30.30;;;;;;;;;;10115743;29;20044;-85
2024/01/08 21:07:23;;;;;;;89.07;31.43;;;;;;;;;;10087225;29;20100;-83
2024/01/08 21:12:24;;;;;;;79.43;31.97;;;;;;;;;;10084569;29;20063;-84
2024/01/08 21:17:25;;;;;;;77.47;32.00;;;;;;;;;;10097875;29;20073;-81
2024/01/08 21:22:26;;;;;;;80.37;31.50;;;;;;;;;;10082909;29;20037;-82
2024/01/08 21:27:27;;;;;;;82.47;33.37;;;;;;;;;;10080371;29;20036;-82
2024/01/08 21:32:28;;;;;;;78.17;31.00;;;;;;;;;;10082878;29;20040;-82
2024/01/08 21:37:35;;;;;;;77.60;30.03;;;;;;;;;;10099331;29;20041;-82
2024/01/08 21:42:36;;;;;;;76.40;29.37;;;;;;;;;;10075311;29;20041;-81
2024/01/08 21:47:37;;;;;;;77.37;31.07;;;;;;;;;;10079553;29;20065;-82
2024/01/08 21:52:38;;;;;;;84.20;31.27;;;;;;;;;;10092195;29;20033;-82
2024/01/08 21:57:40;;;;;;;83.50;33.00;;;;;;;;;;10074997;29;20049;-81
2024/01/08 22:02:41;;;;;;;83.87;31.07;;;;;;;;;;10097434;29;20040;-82
2024/01/08 22:07:42;;;;;;;79.90;30.93;;;;;;;;;;10082100;29;20149;-85
2024/01/08 22:12:43;;;;;;;78.97;29.97;;;;;;;;;;10090721;29;20816;-84
2024/01/08 22:17:44;;;;;;;81.37;33.47;;;;;;;;;;10084204;29;20072;-86
2024/01/08 22:22:45;;;;;;;100.43;37.23;;;;;;;;;;10090349;29;20033;-85
2024/01/08 22:27:46;;;;;;;81.80;31.63;;;;;;;;;;10098763;29;20605;-86
2024/01/08 22:32:47;;;;;;;91.30;34.23;;;;;;;;;;10099104;29;20763;-83
2024/01/08 22:37:50;;;;;;;91.80;35.97;;;;;;;;;;10089727;29;20044;-86
2024/01/08 22:42:51;;;;;;;95.13;37.23;;;;;;;;;;10089683;29;20119;-86
2024/01/08 22:47:52;;;;;;;108.40;40.53;;;;;;;;;;10093434;29;20129;-84
2024/01/08 22:52:53;;;;;;;100.73;37.50;;;;;;;;;;10072434;29;20041;-86
2024/01/08 22:57:54;;;;;;;108.97;40.53;;;;;;;;;;10082699;29;20075;-86
2024/01/08 23:02:55;;;;;;;109.33;41.10;;;;;;;;;;10094947;29;20060;-83
2024/01/08 23:07:56;;;;;;;112.20;42.00;;;;;;;;;;10090390;29;20408;-86
2024/01/08 23:12:57;;;;;;;95.57;37.47;;;;;;;;;;10073612;29;20401;-84
2024/01/08 23:18:03;;;;;;;109.20;40.27;;;;;;;;;;10082902;29;20105;-83
2024/01/08 23:23:04;;;;;;;105.70;40.10;;;;;;;;;;10089748;29;20037;-83
2024/01/08 23:28:05;;;;;;;110.17;38.23;;;;;;;;;;10093924;29;20075;-81
2024/01/08 23:33:06;;;;;;;111.47;39.50;;;;;;;;;;10079051;29;20485;-88
2024/01/08 23:38:07;;;;;;;107.67;40.17;;;;;;;;;;10095870;29;20100;-84
2024/01/08 23:43:09;;;;;;;115.87;41.47;;;;;;;;;;10090701;29;20864;-83
2024/01/08 23:48:10;;;;;;;126.73;44.77;;;;;;;;;;10072715;29;20537;-84
2024/01/08 23:53:11;;;;;;;123.87;47.43;;;;;;;;;;10087774;29;20446;-87
2024/01/08 23:58:12;;;;;;;113.73;43.23;;;;;;;;;;10093372;29;20045;-86
